createdAt,value
2024-03-06T00:00:14.860Z,100615.28
2024-03-06T00:02:43.255Z,100612.56
2024-03-06T00:05:10.598Z,100623.06
2024-03-06T00:07:37.670Z,100625.16
2024-03-06T00:10:06.427Z,100622.81
2024-03-06T00:12:34.037Z,100629.94
2024-03-06T00:15:01.522Z,100637.63
2024-03-06T00:17:28.621Z,100625.81
2024-03-06T00:19:55.625Z,100624.66
2024-03-06T00:22:24.038Z,100624.72
2024-03-06T00:24:52.201Z,100632.81
2024-03-06T00:27:20.726Z,100647.72
2024-03-06T00:29:47.524Z,100646.56
2024-03-06T00:32:14.340Z,100653.34
2024-03-06T00:34:41.723Z,100651.13
2024-03-06T00:37:08.516Z,100663.69
2024-03-06T00:39:36.274Z,100663.16
2024-03-06T00:42:03.746Z,100664.63
2024-03-06T00:44:31.405Z,100666.00
2024-03-06T00:46:58.318Z,100659.59
2024-03-06T00:49:25.188Z,100669.50
2024-03-06T00:51:51.953Z,100669.81
2024-03-06T00:54:19.056Z,100675.00
2024-03-06T00:56:45.841Z,100674.03
2024-03-06T00:59:13.014Z,100669.19
2024-03-06T01:01:40.095Z,100673.81
2024-03-06T01:04:07.372Z,100676.09
2024-03-06T01:10:53.182Z,100674.75
2024-03-06T01:13:22.442Z,100669.75
2024-03-06T01:15:49.285Z,100671.16
2024-03-06T01:18:16.131Z,100665.53
2024-03-06T01:20:43.164Z,100666.13
2024-03-06T01:23:10.403Z,100666.88
2024-03-06T01:25:37.250Z,100656.09
2024-03-06T01:28:04.340Z,100669.16
2024-03-06T01:30:31.090Z,100666.84
2024-03-06T01:32:58.173Z,100671.41
2024-03-06T01:35:25.255Z,100663.13
2024-03-06T01:37:52.036Z,100657.19
2024-03-06T01:40:19.075Z,100663.53
2024-03-06T01:42:48.356Z,100667.84
2024-03-06T01:45:15.191Z,100664.56
2024-03-06T01:47:42.054Z,100665.81
2024-03-06T01:50:10.747Z,100671.03
2024-03-06T01:52:40.916Z,100670.88
2024-03-06T01:55:08.819Z,100662.34
2024-03-06T01:57:35.880Z,100652.88
2024-03-06T02:00:04.591Z,100653.53
2024-03-06T02:02:32.817Z,100650.19
2024-03-06T02:05:01.283Z,100646.75
2024-03-06T02:07:33.031Z,100650.19
2024-03-06T02:09:59.950Z,100661.56
2024-03-06T02:12:26.744Z,100658.50
2024-03-06T02:14:53.675Z,100665.50
2024-03-06T02:17:20.535Z,100663.06
2024-03-06T02:19:47.259Z,100665.72
2024-03-06T02:22:14.109Z,100666.28
2024-03-06T02:24:46.584Z,100663.59
2024-03-06T02:27:13.807Z,100670.56
2024-03-06T02:29:40.642Z,100673.00
2024-03-06T02:32:07.514Z,100676.03
2024-03-06T02:34:34.447Z,100675.59
2024-03-06T02:37:01.623Z,100677.44
2024-03-06T02:39:28.386Z,100672.22
2024-03-06T02:41:55.219Z,100679.28
2024-03-06T02:44:22.171Z,100678.91
2024-03-06T02:46:50.262Z,100678.56
2024-03-06T02:49:18.626Z,100685.16
2024-03-06T02:51:46.166Z,100686.84
2024-03-06T02:54:13.365Z,100679.75
2024-03-06T02:56:40.079Z,100680.16
2024-03-06T02:59:07.369Z,100674.41
2024-03-06T03:01:34.255Z,100678.56
2024-03-06T03:04:01.469Z,100677.97
2024-03-06T03:06:29.857Z,100672.03
2024-03-06T03:08:57.447Z,100671.81
2024-03-06T03:11:24.395Z,100681.91
2024-03-06T03:13:51.553Z,100671.00
2024-03-06T03:16:19.865Z,100672.00
2024-03-06T03:18:47.702Z,100674.69
2024-03-06T03:21:15.902Z,100676.53
2024-03-06T03:23:42.854Z,100676.25
2024-03-06T03:26:13.349Z,100681.78
2024-03-06T03:28:40.798Z,100674.91
2024-03-06T03:31:10.304Z,100679.38
2024-03-06T03:33:41.654Z,100688.09
2024-03-06T03:36:09.433Z,100681.59
2024-03-06T03:38:39.789Z,100678.88
2024-03-06T03:41:10.886Z,100682.41
2024-03-06T03:43:38.061Z,100683.56
2024-03-06T03:46:05.532Z,100690.75
2024-03-06T03:48:32.937Z,100696.72
2024-03-06T03:50:59.752Z,100698.03
2024-03-06T03:53:26.548Z,100694.34
2024-03-06T03:55:53.337Z,100685.91
2024-03-06T03:58:20.392Z,100698.63
2024-03-06T04:00:47.637Z,100695.38
2024-03-06T04:03:14.713Z,100701.22
2024-03-06T04:05:41.462Z,100697.03
2024-03-06T04:08:08.634Z,100697.03
2024-03-06T04:10:35.686Z,100692.50
2024-03-06T04:13:02.554Z,100704.50
2024-03-06T04:15:30.148Z,100704.28
2024-03-06T04:17:56.917Z,100707.94
2024-03-06T04:20:23.731Z,100713.72
2024-03-06T04:22:52.219Z,100710.66
2024-03-06T04:25:19.173Z,100711.66
2024-03-06T04:27:46.127Z,100715.53
2024-03-06T04:30:13.417Z,100722.34
2024-03-06T04:32:40.295Z,100718.03
2024-03-06T04:35:08.379Z,100726.25
2024-03-06T04:37:35.570Z,100728.97
2024-03-06T04:40:04.041Z,100735.38
2024-03-06T04:42:30.969Z,100740.13
2024-03-06T04:44:57.807Z,100741.31
2024-03-06T04:47:27.313Z,100744.88
2024-03-06T04:49:56.109Z,100741.00
2024-03-06T04:52:22.841Z,100742.41
2024-03-06T04:54:49.591Z,100747.19
2024-03-06T04:57:16.302Z,100749.22
2024-03-06T04:59:43.326Z,100751.91
2024-03-06T05:02:10.246Z,100753.81
2024-03-06T05:59:38.712Z,100815.72
2024-03-06T06:02:05.484Z,100815.94
2024-03-06T06:04:38.542Z,100822.78
2024-03-06T06:07:08.177Z,100823.31
2024-03-06T06:09:34.962Z,100841.66
2024-03-06T06:12:01.793Z,100840.22
2024-03-06T06:14:30.524Z,100849.00
2024-03-06T06:16:58.135Z,100845.31
2024-03-06T06:19:25.317Z,100851.47
2024-03-06T06:21:55.580Z,100851.63
2024-03-06T06:24:22.509Z,100860.94
2024-03-06T06:26:49.403Z,100858.00
2024-03-06T06:29:16.356Z,100862.16
2024-03-06T06:31:43.336Z,100867.16
2024-03-06T06:34:10.430Z,100868.59
2024-03-06T06:36:38.744Z,100873.94
2024-03-06T06:39:07.201Z,100880.75
2024-03-06T06:41:34.198Z,100874.94
2024-03-06T06:44:01.325Z,100877.28
2024-03-06T06:46:28.154Z,100882.59
2024-03-06T06:48:54.922Z,100876.00
2024-03-06T06:51:22.066Z,100881.13
2024-03-06T06:53:48.809Z,100884.41
2024-03-06T06:56:15.709Z,100888.16
2024-03-06T06:58:44.520Z,100891.63
2024-03-06T07:01:11.268Z,100899.22
2024-03-06T07:03:38.344Z,100902.50
2024-03-06T07:06:05.825Z,100894.91
2024-03-06T07:08:33.662Z,100891.22
2024-03-06T07:11:00.749Z,100902.34
2024-03-06T07:13:27.594Z,100899.25
2024-03-06T07:15:54.350Z,100898.41
2024-03-06T07:18:21.211Z,100908.75
2024-03-06T07:20:48.692Z,100904.13
2024-03-06T07:23:15.503Z,100904.28
2024-03-06T07:25:42.662Z,100904.00
2024-03-06T07:28:10.136Z,100909.88
2024-03-06T07:30:37.181Z,100916.31
2024-03-06T07:33:04.104Z,100921.38
2024-03-06T07:35:30.883Z,100913.88
2024-03-06T07:37:58.165Z,100920.69
2024-03-06T07:40:25.039Z,100919.03
2024-03-06T07:42:52.245Z,100918.94
2024-03-06T07:45:18.970Z,100926.25
2024-03-06T07:47:46.381Z,100922.34
2024-03-06T07:50:13.869Z,100927.75
2024-03-06T07:52:40.824Z,100939.19
2024-03-06T07:55:07.920Z,100935.28
2024-03-06T07:57:34.639Z,100940.22
2024-03-06T08:00:01.464Z,100934.22
2024-03-06T08:02:29.346Z,100941.38
2024-03-06T08:04:56.294Z,100942.88
2024-03-06T08:07:23.118Z,100948.56
2024-03-06T08:09:49.925Z,100943.13
2024-03-06T08:12:16.760Z,100949.88
2024-03-06T08:14:43.552Z,100959.69
2024-03-06T08:17:10.377Z,100961.28
2024-03-06T08:19:37.205Z,100961.53
2024-03-06T08:22:06.726Z,100963.81
2024-03-06T08:24:33.955Z,100960.88
2024-03-06T08:27:01.308Z,100965.16
2024-03-06T08:29:28.800Z,100961.59
2024-03-06T08:31:59.090Z,100954.25
2024-03-06T08:34:26.158Z,100967.53
2024-03-06T08:36:54.278Z,100976.03
2024-03-06T08:39:21.036Z,100969.47
2024-03-06T08:41:47.886Z,100974.69
2024-03-06T08:44:15.501Z,100974.75
2024-03-06T08:46:42.937Z,100973.41
2024-03-06T08:49:11.342Z,100969.38
2024-03-06T08:51:38.354Z,100979.09
2024-03-06T08:54:05.240Z,100981.56
2024-03-06T08:56:32.097Z,100987.72
2024-03-06T08:58:58.945Z,100981.56
2024-03-06T09:01:26.669Z,100979.69
2024-03-06T09:03:53.609Z,100992.56
2024-03-06T09:06:20.488Z,100988.06
2024-03-06T09:08:49.814Z,100983.22
2024-03-06T09:11:16.673Z,100982.84
2024-03-06T09:13:46.618Z,100983.66
2024-03-06T09:16:13.468Z,100989.03
2024-03-06T09:18:40.573Z,100981.94
2024-03-06T09:21:07.593Z,100984.53
2024-03-06T09:23:34.929Z,100984.31
2024-03-06T09:26:01.727Z,100990.09
2024-03-06T09:28:28.669Z,100982.13
2024-03-06T09:30:55.462Z,100982.91
2024-03-06T09:33:22.394Z,100990.97
2024-03-06T09:35:49.340Z,101001.50
2024-03-06T09:38:19.958Z,100997.00
2024-03-06T09:40:47.602Z,100994.53
2024-03-06T09:43:14.443Z,100989.03
2024-03-06T09:45:41.385Z,100992.53
2024-03-06T09:48:10.056Z,101003.56
2024-03-06T09:50:39.102Z,101008.97
2024-03-06T09:53:07.307Z,101005.72
2024-03-06T09:55:36.029Z,101003.31
2024-03-06T09:58:06.308Z,101002.84
2024-03-06T10:00:34.115Z,101009.25
2024-03-06T10:03:02.204Z,100993.63
2024-03-06T10:05:29.558Z,100997.34
2024-03-06T10:07:56.654Z,101005.59
2024-03-06T10:10:26.210Z,101001.72
2024-03-06T10:12:53.557Z,100995.06
2024-03-06T10:15:22.627Z,100997.91
2024-03-06T10:17:53.598Z,101002.72
2024-03-06T10:20:25.394Z,100998.97
2024-03-06T10:22:58.742Z,101005.59
2024-03-06T10:25:28.638Z,101001.97
2024-03-06T10:28:12.801Z,101013.28
2024-03-06T10:30:45.346Z,101008.53
2024-03-06T10:33:13.531Z,101002.47
2024-03-06T10:35:44.517Z,101008.94
2024-03-06T10:38:14.016Z,101015.91
2024-03-06T10:40:45.049Z,101013.44
2024-03-06T10:43:12.622Z,101008.53
2024-03-06T10:45:48.208Z,101010.06
2024-03-06T10:48:16.265Z,101021.75
2024-03-06T10:50:45.510Z,101010.47
2024-03-06T10:53:16.716Z,101010.47
2024-03-06T10:55:46.198Z,101013.97
2024-03-06T10:58:13.993Z,101020.03
2024-03-06T11:00:42.651Z,101020.03
2024-03-06T11:03:13.448Z,101018.19
2024-03-06T11:05:41.332Z,101019.06
2024-03-06T11:08:14.041Z,101022.75
2024-03-06T11:10:43.088Z,101020.31
2024-03-06T11:13:23.999Z,101015.72
2024-03-06T11:15:53.388Z,101009.72
2024-03-06T11:18:40.478Z,101019.44
2024-03-06T11:21:13.227Z,101012.47
2024-03-06T11:24:12.190Z,101012.63
2024-03-06T11:26:44.173Z,101010.00
2024-03-06T11:29:11.079Z,101001.31
2024-03-06T11:31:37.966Z,101000.25
2024-03-06T11:34:05.654Z,101005.72
2024-03-06T11:36:32.766Z,101006.75
2024-03-06T11:39:04.143Z,101010.88
2024-03-06T11:41:52.394Z,101007.66
2024-03-06T11:44:24.684Z,101010.22
2024-03-06T11:47:05.000Z,101003.41
2024-03-06T11:49:34.950Z,101006.91
2024-03-06T11:52:09.568Z,101013.50
2024-03-06T11:54:37.346Z,101005.41
2024-03-06T11:57:05.547Z,101009.50
2024-03-06T11:59:35.274Z,101008.00
2024-03-06T12:02:06.870Z,101008.34
2024-03-06T12:04:38.386Z,101007.28
2024-03-06T12:07:10.645Z,101012.00
2024-03-06T12:09:42.101Z,101013.84
2024-03-06T12:12:12.230Z,101005.06
2024-03-06T12:14:42.840Z,101003.41
2024-03-06T12:17:16.692Z,101004.69
2024-03-06T12:19:46.182Z,101008.00
2024-03-06T12:22:13.541Z,101000.84
2024-03-06T12:24:40.550Z,100995.47
2024-03-06T12:27:09.077Z,100998.16
2024-03-06T12:29:37.120Z,101005.28
2024-03-06T12:32:04.365Z,101002.81
2024-03-06T12:34:31.511Z,101004.03
2024-03-06T12:37:10.800Z,100998.25
2024-03-06T12:39:40.725Z,101005.41
2024-03-06T12:42:09.781Z,101003.41
2024-03-06T12:44:36.652Z,100998.72
2024-03-06T12:47:03.519Z,101007.78
2024-03-06T12:49:30.475Z,100997.00
2024-03-06T12:51:57.337Z,101000.84
2024-03-06T12:54:24.533Z,100998.97
2024-03-06T12:56:52.097Z,100997.34
2024-03-06T12:59:18.916Z,100997.69
2024-03-06T13:01:48.507Z,100992.09
2024-03-06T13:04:15.302Z,100996.75
2024-03-06T13:06:42.163Z,100998.50
2024-03-06T13:09:08.994Z,100995.47
2024-03-06T13:11:35.944Z,100994.03
2024-03-06T13:14:02.761Z,100988.09
2024-03-06T13:16:29.810Z,100997.47
2024-03-06T13:18:58.498Z,100994.06
2024-03-06T13:21:25.728Z,100988.19
2024-03-06T13:23:52.553Z,100990.50
2024-03-06T13:26:19.911Z,100995.31
2024-03-06T13:28:47.188Z,100989.91
2024-03-06T13:31:14.441Z,100981.94
2024-03-06T13:33:41.711Z,100986.78
2024-03-06T13:36:12.206Z,100986.88
2024-03-06T13:38:39.062Z,100982.44
2024-03-06T13:41:06.216Z,100985.59
2024-03-06T13:43:33.858Z,100978.59
2024-03-06T13:46:00.669Z,100982.44
2024-03-06T13:48:27.455Z,100990.22
2024-03-06T13:50:54.313Z,100991.56
2024-03-06T13:53:21.204Z,100990.56
2024-03-06T13:55:51.262Z,101000.84
2024-03-06T13:58:18.501Z,101001.56
2024-03-06T14:00:45.488Z,100999.22
2024-03-06T14:03:13.153Z,100992.66
2024-03-06T14:05:40.719Z,101003.44
2024-03-06T14:08:08.759Z,100997.34
2024-03-06T14:10:36.514Z,100998.50
2024-03-06T14:13:04.299Z,100999.94
2024-03-06T14:15:31.113Z,101003.19
2024-03-06T14:17:58.198Z,101001.81
2024-03-06T14:20:25.407Z,101007.63
2024-03-06T14:22:52.487Z,100994.06
2024-03-06T14:25:19.426Z,101006.22
2024-03-06T14:27:47.377Z,101006.56
2024-03-06T14:30:16.283Z,101004.16
2024-03-06T14:32:43.133Z,101006.00
2024-03-06T14:35:10.425Z,101000.16
2024-03-06T14:37:37.281Z,101005.56
2024-03-06T14:40:09.573Z,101004.84
2024-03-06T14:42:39.556Z,100999.66
2024-03-06T14:45:06.820Z,101003.69
2024-03-06T14:47:34.667Z,101006.38
2024-03-06T14:50:01.819Z,101014.22
2024-03-06T14:52:31.332Z,101010.94
2024-03-06T14:54:58.037Z,101016.53
2024-03-06T14:57:25.109Z,101016.78
2024-03-06T14:59:52.559Z,101015.84
2024-03-06T15:02:20.178Z,101008.59
2024-03-06T15:04:47.149Z,101011.84
2024-03-06T15:07:14.247Z,101006.13
2024-03-06T15:09:41.040Z,101009.94
2024-03-06T15:12:08.599Z,101016.03
2024-03-06T15:14:39.953Z,101012.06
2024-03-06T15:17:13.159Z,101012.53
2024-03-06T15:19:42.818Z,101012.66
2024-03-06T15:22:09.526Z,101013.59
2024-03-06T15:24:36.325Z,101013.81
2024-03-06T15:27:03.318Z,101014.84
2024-03-06T15:29:30.246Z,101019.19
2024-03-06T15:31:57.072Z,101015.34
2024-03-06T15:34:23.867Z,101018.81
2024-03-06T15:36:51.966Z,101022.22
2024-03-06T15:39:20.107Z,101017.09
2024-03-06T15:41:46.970Z,101015.13
2024-03-06T15:44:14.477Z,101019.44
2024-03-06T15:46:45.863Z,101017.91
2024-03-06T15:49:26.551Z,101023.00
2024-03-06T15:51:55.155Z,101020.50
2024-03-06T15:54:25.043Z,101022.03
2024-03-06T15:56:51.955Z,101022.53
2024-03-06T15:59:18.983Z,101024.94
2024-03-06T16:01:46.213Z,101022.25
2024-03-06T16:04:14.252Z,101020.75
2024-03-06T16:06:41.920Z,101029.41
2024-03-06T16:09:15.321Z,101035.47
2024-03-06T16:11:42.815Z,101029.41
2024-03-06T16:14:10.220Z,101023.69
2024-03-06T16:16:37.268Z,101022.03
2024-03-06T16:19:04.218Z,101029.19
2024-03-06T16:21:32.677Z,101025.66
2024-03-06T16:23:59.552Z,101036.69
2024-03-06T16:26:30.700Z,101044.75
2024-03-06T16:28:59.861Z,101040.44
2024-03-06T16:31:26.811Z,101051.06
2024-03-06T16:33:53.963Z,101050.50
2024-03-06T16:36:22.697Z,101050.47
2024-03-06T16:38:49.818Z,101056.22
2024-03-06T16:41:17.008Z,101057.66
2024-03-06T16:43:46.863Z,101058.56
2024-03-06T16:46:13.822Z,101058.13
2024-03-06T16:48:40.719Z,101056.00
2024-03-06T16:51:07.544Z,101046.75
2024-03-06T16:53:34.514Z,101051.34
2024-03-06T16:56:01.395Z,101057.97
2024-03-06T16:58:28.210Z,101062.53
2024-03-06T17:00:55.059Z,101064.56
2024-03-06T17:03:21.917Z,101063.75
2024-03-06T17:05:48.711Z,101072.47
2024-03-06T17:08:16.862Z,101067.53
2024-03-06T17:10:44.660Z,101064.25
2024-03-06T17:13:11.720Z,101063.91
2024-03-06T17:15:38.610Z,101056.88
2024-03-06T17:21:19.741Z,101070.56
2024-03-06T17:23:50.357Z,101066.09
2024-03-06T17:26:17.356Z,101066.44
2024-03-06T17:28:44.385Z,101069.03
2024-03-06T17:31:11.302Z,101062.66
2024-03-06T17:33:38.170Z,101079.78
2024-03-06T17:36:06.607Z,101077.69
2024-03-06T17:38:35.034Z,101084.59
2024-03-06T17:41:01.930Z,101079.69
2024-03-06T17:43:28.872Z,101092.50
2024-03-06T17:45:55.650Z,101086.19
2024-03-06T17:48:22.573Z,101095.78
2024-03-06T17:50:49.396Z,101098.25
2024-03-06T17:53:16.980Z,101103.50
2024-03-06T17:55:43.777Z,101098.03
2024-03-06T17:58:10.743Z,101116.34
2024-03-06T18:00:37.792Z,101111.91
2024-03-06T18:03:04.995Z,101112.03
2024-03-06T18:05:31.889Z,101104.94
2024-03-06T18:07:59.000Z,101115.34
2024-03-06T18:10:25.893Z,101102.66
2024-03-06T18:12:52.781Z,101108.03
2024-03-06T18:15:19.543Z,101116.34
2024-03-06T18:17:46.576Z,101113.41
2024-03-06T18:20:14.245Z,101114.69
2024-03-06T18:22:42.107Z,101119.25
2024-03-06T18:25:09.996Z,101116.09
2024-03-06T18:27:37.051Z,101118.56
2024-03-06T18:30:05.110Z,101114.56
2024-03-06T18:32:32.362Z,101111.53
2024-03-06T18:34:59.383Z,101116.75
2024-03-06T18:37:26.354Z,101112.28
2024-03-06T18:39:53.260Z,101112.44
2024-03-06T18:42:21.908Z,101121.44
2024-03-06T18:44:49.803Z,101112.88
2024-03-06T18:47:17.023Z,101117.19
2024-03-06T18:49:44.079Z,101120.59
2024-03-06T18:52:11.597Z,101121.81
2024-03-06T18:54:41.020Z,101113.63
2024-03-06T18:57:09.485Z,101125.44
2024-03-06T18:59:36.614Z,101129.06
2024-03-06T19:02:04.248Z,101127.97
2024-03-06T19:04:38.110Z,101132.69
2024-03-06T19:07:06.058Z,101127.69
2024-03-06T19:09:32.829Z,101131.41
2024-03-06T19:11:59.712Z,101134.72
2024-03-06T19:14:26.652Z,101131.03
2024-03-06T19:16:53.504Z,101131.22
2024-03-06T19:19:20.417Z,101137.31
2024-03-06T19:21:49.355Z,101130.53
2024-03-06T19:24:17.844Z,101125.72
2024-03-06T19:26:45.002Z,101130.28
2024-03-06T19:29:12.021Z,101132.31
2024-03-06T19:31:39.137Z,101135.84
2024-03-06T19:34:07.120Z,101138.06
2024-03-06T19:36:34.164Z,101139.47
2024-03-06T19:39:05.932Z,101140.00
2024-03-06T19:41:33.021Z,101136.38
2024-03-06T19:44:00.001Z,101121.84
2024-03-06T19:46:26.722Z,101134.03
2024-03-06T19:48:55.813Z,101137.69
2024-03-06T19:51:23.807Z,101131.34
2024-03-06T19:53:53.530Z,101133.06
2024-03-06T19:56:20.743Z,101135.94
2024-03-06T19:59:13.220Z,101141.31
2024-03-06T20:01:41.433Z,101121.41
2024-03-06T20:04:12.125Z,101135.97
2024-03-06T20:06:39.415Z,101107.25
2024-03-06T20:09:06.489Z,101123.50
2024-03-06T20:11:34.193Z,101132.03
2024-03-06T20:14:06.470Z,101131.88
2024-03-06T20:16:36.186Z,101124.56
2024-03-06T20:19:03.390Z,101127.09
2024-03-06T20:21:32.410Z,101134.72
2024-03-06T20:24:00.647Z,101119.69
2024-03-06T20:26:27.978Z,101131.88
2024-03-06T20:28:55.341Z,101122.47
2024-03-06T20:31:22.890Z,101124.56
2024-03-06T20:33:54.933Z,101121.94
2024-03-06T20:36:22.082Z,101138.88
2024-03-06T20:38:49.484Z,101127.53
2024-03-06T20:41:17.970Z,101125.44
2024-03-06T20:43:44.851Z,101115.13
2024-03-06T20:46:12.003Z,101125.56
2024-03-06T20:48:38.937Z,101127.69
2024-03-06T20:51:10.400Z,101130.53
2024-03-06T20:53:37.254Z,101124.69
2024-03-06T20:56:08.654Z,101114.56
2024-03-06T20:58:36.657Z,101124.53
2024-03-06T21:01:05.638Z,101126.81
2024-03-06T21:03:32.933Z,101128.44
2024-03-06T21:06:00.413Z,101124.28
2024-03-06T21:08:28.556Z,101137.41
2024-03-06T21:10:55.572Z,101133.81
2024-03-06T21:13:22.563Z,101134.41
2024-03-06T21:15:49.454Z,101132.47
2024-03-06T21:18:17.408Z,101127.56
2024-03-06T21:20:45.283Z,101124.88
2024-03-06T21:23:11.984Z,101135.41
2024-03-06T21:25:38.850Z,101130.16
2024-03-06T21:28:05.702Z,101125.59
2024-03-06T21:30:32.733Z,101132.66
2024-03-06T21:33:00.612Z,101127.75
2024-03-06T21:35:27.523Z,101135.81
2024-03-06T21:37:56.413Z,101134.25
2024-03-06T21:40:25.222Z,101135.28
2024-03-06T21:42:53.545Z,101129.84
2024-03-06T21:45:20.293Z,101134.25
2024-03-06T21:47:47.167Z,101134.88
2024-03-06T21:50:14.331Z,101136.97
2024-03-06T21:52:41.264Z,101137.44
2024-03-06T21:55:09.693Z,101132.91
2024-03-06T21:57:36.476Z,101142.44
2024-03-06T22:00:05.142Z,101146.91
2024-03-06T22:02:32.985Z,101138.41
2024-03-06T22:04:59.894Z,101143.88
2024-03-06T22:07:28.297Z,101131.81
2024-03-06T22:09:55.151Z,101150.13
2024-03-06T22:12:23.990Z,101144.94
2024-03-06T22:14:51.013Z,101146.38
2024-03-06T22:17:19.478Z,101140.16
2024-03-06T22:19:46.207Z,101145.53
2024-03-06T22:22:13.585Z,101151.34
2024-03-06T22:24:41.264Z,101155.50
2024-03-06T22:27:08.094Z,101155.34
2024-03-06T22:29:35.014Z,101151.16
2024-03-06T22:32:02.313Z,101153.25
2024-03-06T22:34:29.047Z,101147.31
2024-03-06T22:36:58.203Z,101159.06
2024-03-06T22:39:27.482Z,101155.16
2024-03-06T22:41:54.299Z,101157.00
2024-03-06T22:44:21.208Z,101151.63
2024-03-06T22:46:51.614Z,101159.56
2024-03-06T22:49:23.037Z,101155.81
2024-03-06T22:51:49.970Z,101160.63
2024-03-06T22:54:17.373Z,101144.66
2024-03-06T22:56:47.223Z,101152.25
2024-03-06T22:59:14.089Z,101147.50
2024-03-06T23:01:41.112Z,101148.94
2024-03-06T23:04:08.297Z,101150.56
2024-03-06T23:06:35.268Z,101151.81
2024-03-06T23:09:02.107Z,101146.78
2024-03-06T23:11:30.593Z,101157.19
2024-03-06T23:13:57.795Z,101149.97
2024-03-06T23:16:27.610Z,101158.88
2024-03-06T23:18:57.220Z,101157.31
2024-03-06T23:21:24.363Z,101161.03
2024-03-06T23:23:51.471Z,101150.69
2024-03-06T23:26:19.504Z,101157.78
2024-03-06T23:28:46.485Z,101150.69
2024-03-06T23:31:13.989Z,101151.91
2024-03-06T23:33:40.878Z,101153.53
2024-03-06T23:36:07.987Z,101146.16
2024-03-06T23:38:34.889Z,101142.81
2024-03-06T23:41:01.982Z,101151.94
2024-03-06T23:43:29.093Z,101151.25
2024-03-06T23:45:56.329Z,101149.09
2024-03-06T23:48:24.841Z,101149.09
2024-03-06T23:50:51.841Z,101151.34
2024-03-06T23:53:18.846Z,101154.19
2024-03-06T23:55:46.779Z,101149.81
2024-03-06T23:58:17.454Z,101155.88
